Lecoma, Missouri
Current Conditions -  °F | °C
As of 11:58 AM on Friday 21 Nov 2014 (Local Time) from KTBN Reporting Station
Overcast Overcast  
Wind Chill: 35°   Ceiling: 2300
Heat Index: 43°   Visibility: 10mi
Dew Point: 24°   Wind: 15mph
Humidity: 49%   Direction: 150°SSE
Pressure: 30.27"   Gusts: NA
Location:  37.78°N, 91.73°W
Report Text: KTBN 211758Z AUTO 15013KT 10SM BKN023 OVC032 06/M04 A3027 RMK AO2 SLP262 T00591042 10063 21022 58010
Loading
Personal Weather Stations






























Interactive Weather Map New forecast layout! Learn more

10-Day Weather Forecast

Advertisements
Track Severe Weather on mobile